Terminal Aerodrome Forecast
Issued by NWS Charleston, WV

Current Version | Previous Version | Text Only | Print | Product List | Glossary Off
Versions: 1 2 3 4 5 6 7 8 9 10 11 12 13 14 15 16 17 18 19 20 21 22 23 24 25 26 27 28 29 30

000
FTUS41 KRLX 250500
TAFCRW
TAF
KCRW 250535Z 2506/2606 14005KT P6SM -RA BKN060
     FM250800 17008KT P6SM BKN060
     FM251700 22010G18KT P6SM VCSH BKN050
     FM252300 20005KT P6SM BKN060=

USA.gov is the U.S. government's official web portal to all federal, state and local government web resources and services.